Time;durP1;ratioP1;P1;durP2;ratioP2;P2;SDS_P1;SDS_P2;PMS_P1;PMS_P2;Temp;Humidity;BMP_temperature;BMP_pressure;BME280_temperature;BME280_humidity;BME280_pressure;Samples;Min_cycle;Max_cycle;Signal;HPM_P1;HPM_P2
2022/09/08 00:02:28;;;;;;;16.00;9.48;;;;;;;15.69;100.00;100429.41;6049580;28;20077;-64
2022/09/08 00:05:25;;;;;;;15.68;9.48;;;;;;;15.80;100.00;100435.09;6049891;28;20040;-64
2022/09/08 00:08:20;;;;;;;17.35;10.40;;;;;;;16.12;100.00;100412.44;6044850;28;20037;-64
2022/09/08 00:11:18;;;;;;;16.53;10.23;;;;;;;16.14;100.00;100418.44;6036761;28;20027;-64
2022/09/08 00:14:13;;;;;;;19.67;10.70;;;;;;;16.02;100.00;100419.94;6040835;28;20041;-64
2022/09/08 00:17:08;;;;;;;17.07;11.37;;;;;;;16.20;100.00;100400.81;6047038;28;20374;-64
2022/09/08 00:20:06;;;;;;;18.97;11.53;;;;;;;16.30;100.00;100402.16;6045914;28;20073;-65
2022/09/08 00:23:01;;;;;;;17.33;10.75;;;;;;;16.01;100.00;100399.56;6042355;28;20513;-64
2022/09/08 00:25:57;;;;;;;17.47;9.67;;;;;;;15.86;100.00;100409.47;6049750;28;20025;-64
2022/09/08 00:28:52;;;;;;;14.87;9.27;;;;;;;15.51;100.00;100402.22;6043109;28;20109;-64
2022/09/08 00:31:47;;;;;;;15.97;10.10;;;;;;;15.40;100.00;100412.34;6049061;28;20304;-65
2022/09/08 00:34:42;;;;;;;17.00;10.33;;;;;;;15.23;100.00;100408.19;6045608;28;20022;-64
2022/09/08 00:37:38;;;;;;;14.40;10.00;;;;;;;15.08;100.00;100388.66;6049634;28;20069;-65
2022/09/08 00:40:45;;;;;;;18.90;11.47;;;;;;;15.63;100.00;100387.38;6048690;28;20065;-64
2022/09/08 00:43:43;;;;;;;20.00;11.40;;;;;;;15.87;100.00;100387.06;6048060;28;20485;-64
2022/09/08 00:46:41;;;;;;;16.85;11.15;;;;;;;15.73;100.00;100371.88;6026076;28;20125;-64
2022/09/08 00:49:36;;;;;;;17.13;10.75;;;;;;;15.44;100.00;100362.84;6044790;28;20088;-65
2022/09/08 00:52:56;;;;;;;17.40;10.53;;;;;;;15.21;100.00;100364.81;6048122;28;20030;-64
2022/09/08 00:55:51;;;;;;;19.20;11.48;;;;;;;15.76;100.00;100371.50;6049296;28;20106;-65
2022/09/08 00:58:47;;;;;;;18.98;11.57;;;;;;;15.82;100.00;100386.78;6049486;28;20056;-64
2022/09/08 01:01:42;;;;;;;17.23;10.60;;;;;;;15.88;100.00;100376.16;6041221;28;20056;-64
2022/09/08 01:04:37;;;;;;;19.73;11.48;;;;;;;16.03;100.00;100357.41;6040658;28;20305;-62
2022/09/08 01:14:51;;;;;;;13.88;8.77;;;;;;;15.06;100.00;100353.28;6047632;28;20038;-63
2022/09/08 01:17:48;;;;;;;17.48;11.02;;;;;;;15.86;100.00;100351.47;6044888;28;20048;-62
2022/09/08 01:20:50;;;;;;;16.73;11.20;;;;;;;15.91;100.00;100357.06;6048036;28;20036;-62
2022/09/08 01:24:18;;;;;;;17.90;11.05;;;;;;;15.83;100.00;100351.84;6064043;28;20461;-62
2022/09/08 01:27:21;;;;;;;15.65;10.48;;;;;;;15.83;100.00;100356.34;6048831;28;20540;-62
2022/09/08 01:30:16;;;;;;;16.35;9.75;;;;;;;15.65;100.00;100359.47;6046832;28;20112;-63
2022/09/08 01:33:12;;;;;;;14.93;9.60;;;;;;;15.39;100.00;100367.91;6040169;28;20458;-62
2022/09/08 01:36:13;;;;;;;17.80;9.93;;;;;;;15.31;100.00;100341.31;6050107;28;20104;-62
2022/09/08 01:39:08;;;;;;;18.65;11.35;;;;;;;15.33;100.00;100349.94;6048364;28;20088;-62
2022/09/08 01:42:05;;;;;;;16.45;10.57;;;;;;;15.29;100.00;100337.16;6046411;28;20404;-62
2022/09/08 01:45:01;;;;;;;18.40;11.40;;;;;;;15.58;100.00;100350.50;6036228;28;20036;-65
2022/09/08 01:47:56;;;;;;;18.07;11.13;;;;;;;15.65;100.00;100353.28;6023937;28;20514;-62
2022/09/08 01:50:52;;;;;;;18.07;12.20;;;;;;;15.38;100.00;100336.84;6027197;28;20068;-65
2022/09/08 01:53:47;;;;;;;20.38;10.50;;;;;;;15.43;100.00;100339.84;6046147;28;20057;-63
2022/09/08 01:56:42;;;;;;;15.27;9.87;;;;;;;15.36;100.00;100328.22;6047845;28;20114;-63
2022/09/08 01:59:38;;;;;;;16.87;9.90;;;;;;;15.35;100.00;100331.91;6047937;28;20034;-63
2022/09/08 02:02:33;;;;;;;16.03;10.40;;;;;;;15.20;100.00;100320.41;6044971;28;20355;-62
2022/09/08 02:05:29;;;;;;;16.42;10.15;;;;;;;15.11;100.00;100318.81;6041117;28;20033;-62
2022/09/08 02:08:24;;;;;;;18.30;10.93;;;;;;;15.43;100.00;100313.09;6041344;28;20497;-63
2022/09/08 02:11:19;;;;;;;18.17;11.77;;;;;;;15.64;100.00;100320.38;6046970;28;20041;-62
2022/09/08 02:14:15;;;;;;;16.03;10.87;;;;;;;15.73;100.00;100329.09;6047429;28;20073;-62
2022/09/08 02:17:11;;;;;;;18.92;11.73;;;;;;;15.60;100.00;100318.25;6045209;28;20205;-62
2022/09/08 02:20:06;;;;;;;17.17;11.38;;;;;;;15.66;100.00;100314.81;6046646;28;20061;-62
2022/09/08 02:23:01;;;;;;;19.75;11.45;;;;;;;15.42;100.00;100321.28;6047059;28;20033;-62
2022/09/08 02:25:57;;;;;;;16.93;9.87;;;;;;;15.06;100.00;100307.03;6034619;28;20104;-62
2022/09/08 02:28:53;;;;;;;17.03;9.77;;;;;;;15.01;100.00;100296.91;6046995;28;20049;-62
2022/09/08 02:31:48;;;;;;;15.65;10.20;;;;;;;14.89;100.00;100309.09;6044473;28;20375;-62
2022/09/08 02:34:43;;;;;;;15.90;9.90;;;;;;;15.24;100.00;100307.50;6046670;28;20729;-62
2022/09/08 02:37:39;;;;;;;18.10;11.07;;;;;;;14.95;100.00;100292.31;6046586;28;20038;-62
2022/09/08 02:40:34;;;;;;;17.83;10.90;;;;;;;14.89;100.00;100315.22;6046286;28;20030;-62
2022/09/08 02:43:29;;;;;;;17.93;9.23;;;;;;;14.70;100.00;100310.44;6037554;28;20402;-62
2022/09/08 02:46:25;;;;;;;16.00;9.57;;;;;;;14.55;100.00;100322.09;6042138;28;20121;-62
2022/09/08 02:49:20;;;;;;;14.48;9.00;;;;;;;14.26;100.00;100310.34;6037146;28;20052;-62
2022/09/08 02:52:16;;;;;;;14.23;9.13;;;;;;;14.12;100.00;100315.59;6045737;28;20056;-61
2022/09/08 02:55:11;;;;;;;13.63;8.13;;;;;;;14.10;100.00;100318.47;6045946;28;20038;-61
2022/09/08 02:58:07;;;;;;;14.10;9.17;;;;;;;14.25;100.00;100303.34;6031883;28;20030;-62
2022/09/08 03:01:04;;;;;;;12.68;8.43;;;;;;;14.17;100.00;100308.72;6044121;28;20033;-62
2022/09/08 03:04:01;;;;;;;15.23;9.18;;;;;;;14.45;100.00;100302.88;6041973;28;20030;-62
2022/09/08 03:06:56;;;;;;;13.98;8.77;;;;;;;14.76;100.00;100303.53;6046272;28;20057;-62
2022/09/08 03:09:51;;;;;;;16.07;10.30;;;;;;;15.00;100.00;100303.25;6045106;28;20042;-61
2022/09/08 03:12:47;;;;;;;14.80;9.10;;;;;;;14.90;100.00;100310.72;6034781;28;20034;-62
2022/09/08 03:15:43;;;;;;;13.30;8.30;;;;;;;14.30;100.00;100302.78;6044493;28;20492;-62
2022/09/08 03:18:38;;;;;;;10.40;7.53;;;;;;;14.10;100.00;100296.31;6033284;28;20088;-62
2022/09/08 03:21:33;;;;;;;23.90;8.03;;;;;;;13.92;100.00;100287.75;6045360;28;20699;-63
2022/09/08 03:24:30;;;;;;;16.93;7.77;;;;;;;14.10;100.00;100291.81;6038730;28;20482;-63
2022/09/08 03:27:26;;;;;;;13.40;8.07;;;;;;;14.03;100.00;100285.50;6046208;28;20038;-62
2022/09/08 03:30:22;;;;;;;10.30;6.78;;;;;;;14.06;100.00;100274.50;6040846;28;20030;-62
2022/09/08 03:33:17;;;;;;;10.25;7.53;;;;;;;14.26;100.00;100278.31;6044367;28;20046;-63
2022/09/08 03:36:15;;;;;;;11.60;7.78;;;;;;;14.63;100.00;100274.81;6045355;28;20111;-62
2022/09/08 03:39:10;;;;;;;11.23;8.55;;;;;;;14.57;100.00;100282.72;6046252;28;20042;-62
2022/09/08 03:42:06;;;;;;;10.87;8.17;;;;;;;14.42;100.00;100264.03;6039937;28;20041;-63
2022/09/08 03:45:04;;;;;;;10.47;7.57;;;;;;;14.39;100.00;100274.22;6028283;28;20537;-62
2022/09/08 03:47:59;;;;;;;9.82;6.82;;;;;;;14.26;100.00;100273.00;6030761;28;20472;-63
2022/09/08 03:50:55;;;;;;;10.45;7.47;;;;;;;14.58;100.00;100260.38;6045214;28;20046;-63
2022/09/08 03:54:46;;;;;;;18.63;8.90;;;;;;;14.87;100.00;100269.22;6040575;28;20061;-62
2022/09/08 03:57:10;;;;;;;10.90;8.25;;;;;;;14.65;100.00;100269.28;6045077;28;20045;-62
2022/09/08 04:00:08;;;;;;;12.37;8.63;;;;;;;14.56;100.00;100265.06;6035318;28;20485;-63
2022/09/08 04:03:05;;;;;;;11.38;8.00;;;;;;;14.61;100.00;100266.19;6045528;28;20790;-63
2022/09/08 04:06:00;;;;;;;11.70;8.15;;;;;;;14.42;100.00;100233.84;6045618;28;20045;-62
2022/09/08 04:08:56;;;;;;;12.30;8.63;;;;;;;14.39;100.00;100228.88;6039442;28;20034;-63
2022/09/08 04:11:51;;;;;;;13.60;8.60;;;;;;;14.52;100.00;100226.41;6041944;28;20137;-62
2022/09/08 04:14:48;;;;;;;14.65;9.73;;;;;;;15.01;100.00;100235.50;6035795;28;20038;-62
2022/09/08 04:17:43;;;;;;;15.02;10.07;;;;;;;15.04;100.00;100224.44;6045349;28;20141;-62
2022/09/08 04:20:39;;;;;;;16.45;11.07;;;;;;;15.12;100.00;100229.69;6044833;28;20468;-62
2022/09/08 04:23:35;;;;;;;18.92;11.35;;;;;;;15.12;100.00;100232.34;6045618;28;20401;-62
2022/09/08 04:26:31;;;;;;;22.07;12.97;;;;;;;15.23;100.00;100215.00;6048313;28;20473;-62
2022/09/08 04:29:26;;;;;;;18.50;12.05;;;;;;;15.41;100.00;100218.91;6062102;28;20038;-63
2022/09/08 04:32:21;;;;;;;19.70;12.37;;;;;;;15.22;100.00;100214.19;6029035;28;20069;-63
2022/09/08 04:35:17;;;;;;;18.58;12.60;;;;;;;15.16;100.00;100222.13;6045182;28;20122;-62
2022/09/08 04:38:12;;;;;;;20.30;13.20;;;;;;;15.11;100.00;100227.22;6048917;28;20041;-62
2022/09/08 04:41:10;;;;;;;19.83;13.45;;;;;;;15.07;100.00;100197.38;6049242;28;20026;-62
2022/09/08 04:44:06;;;;;;;19.75;13.25;;;;;;;15.24;100.00;100190.78;6040101;28;20030;-63
2022/09/08 04:47:01;;;;;;;21.83;14.55;;;;;;;15.21;100.00;100191.16;6049276;28;20061;-62
2022/09/08 04:49:57;;;;;;;22.17;14.20;;;;;;;15.20;100.00;100204.69;6036361;28;20038;-62
2022/09/08 04:52:52;;;;;;;22.57;14.90;;;;;;;15.21;100.00;100191.16;6048472;28;20076;-63
2022/09/08 04:55:47;;;;;;;22.23;13.47;;;;;;;15.15;100.00;100197.25;6049330;28;20030;-62
2022/09/08 04:58:43;;;;;;;24.97;15.13;;;;;;;15.05;100.00;100211.94;6042882;28;20099;-63
2022/09/08 05:01:38;;;;;;;21.65;13.20;;;;;;;15.07;100.00;100191.19;6048510;28;20026;-62
2022/09/08 05:04:33;;;;;;;23.73;15.53;;;;;;;15.14;100.00;100190.25;6049167;28;20042;-62
2022/09/08 05:07:29;;;;;;;26.43;16.50;;;;;;;15.20;100.00;100199.34;6048650;28;20033;-62
2022/09/08 05:10:24;;;;;;;25.33;15.00;;;;;;;15.06;100.00;100198.38;6048778;28;20393;-62
2022/09/08 05:13:19;;;;;;;23.47;14.83;;;;;;;15.18;100.00;100212.09;6044713;28;20108;-62
2022/09/08 05:16:18;;;;;;;24.07;15.33;;;;;;;15.21;100.00;100207.19;6039998;28;20473;-61
2022/09/08 05:19:13;;;;;;;25.90;15.88;;;;;;;15.16;100.00;100209.63;6039256;28;20635;-63
2022/09/08 05:22:08;;;;;;;25.37;16.17;;;;;;;15.24;100.00;100214.00;6047403;28;20022;-63
2022/09/08 05:25:04;;;;;;;26.60;15.37;;;;;;;15.40;100.00;100211.94;6038039;28;20663;-62
2022/09/08 05:28:00;;;;;;;24.80;15.82;;;;;;;15.30;100.00;100194.56;6044919;28;20292;-63
2022/09/08 05:30:56;;;;;;;27.25;16.33;;;;;;;15.37;100.00;100206.97;6046598;28;20563;-61
2022/09/08 05:33:52;;;;;;;26.15;16.35;;;;;;;15.32;100.00;100209.38;6048716;28;20141;-62
2022/09/08 05:36:48;;;;;;;25.50;15.27;;;;;;;15.30;100.00;100208.72;6043424;28;20497;-62
2022/09/08 05:39:43;;;;;;;29.13;17.75;;;;;;;15.31;100.00;100210.38;6047965;28;20030;-62
2022/09/08 05:42:39;;;;;;;28.17;17.80;;;;;;;15.39;100.00;100214.78;6047726;28;20041;-61
2022/09/08 05:45:34;;;;;;;30.27;17.60;;;;;;;15.20;100.00;100205.53;6038377;28;20681;-61
2022/09/08 05:48:30;;;;;;;32.10;18.33;;;;;;;15.25;100.00;100195.09;6044577;28;20063;-61
2022/09/08 05:51:26;;;;;;;27.60;17.05;;;;;;;15.41;100.00;100205.56;6054080;28;20301;-61
2022/09/08 05:54:22;;;;;;;25.67;16.05;;;;;;;15.43;100.00;100200.88;6044434;28;20033;-62
2022/09/08 05:57:17;;;;;;;27.90;17.48;;;;;;;15.36;100.00;100186.59;6045378;28;20072;-62
2022/09/08 06:00:13;;;;;;;28.17;17.80;;;;;;;15.40;100.00;100190.56;6040691;28;20038;-63
2022/09/08 06:03:09;;;;;;;31.13;19.60;;;;;;;15.39;100.00;100194.22;6044603;28;20381;-62
2022/09/08 06:06:10;;;;;;;28.60;18.02;;;;;;;15.48;100.00;100203.84;6021936;28;20741;-62
2022/09/08 06:09:07;;;;;;;35.40;19.52;;;;;;;15.52;100.00;100208.78;6040899;28;20029;-63
2022/09/08 06:12:02;;;;;;;32.88;20.88;;;;;;;15.40;100.00;100209.25;6046086;28;20100;-62
2022/09/08 06:14:58;;;;;;;36.83;22.13;;;;;;;15.39;100.00;100204.91;6032112;28;20117;-62
2022/09/08 06:17:53;;;;;;;37.47;21.77;;;;;;;15.39;100.00;100199.59;6024081;28;20118;-62
2022/09/08 06:20:48;;;;;;;35.22;20.67;;;;;;;15.50;100.00;100195.59;6023051;28;20367;-62
2022/09/08 06:23:48;;;;;;;39.60;22.27;;;;;;;15.53;100.00;100205.09;6031151;28;20034;-62
2022/09/08 06:26:56;;;;;;;34.25;21.08;;;;;;;15.61;100.00;100199.63;6046425;28;20025;-62
2022/09/08 06:30:02;;;;;;;39.17;22.95;;;;;;;15.56;100.00;100194.84;6047407;28;20037;-61
2022/09/08 06:33:02;;;;;;;;;;;;;;;15.59;100.00;100193.63;6047408;28;20037;-61
2022/09/08 06:36:20;;;;;;;33.20;20.05;;;;;;;15.70;100.00;100218.03;6047293;28;19915;-61
2022/09/08 06:39:48;;;;;;;36.30;22.50;;;;;;;15.68;100.00;100230.72;6032388;28;20057;-61
2022/09/08 06:42:45;;;;;;;36.42;21.55;;;;;;;15.71;100.00;100249.06;6009700;28;20050;-63
2022/09/08 06:45:52;;;;;;;35.97;20.65;;;;;;;15.81;100.00;100219.34;6022747;28;20138;-63
2022/09/08 06:48:48;;;;;;;37.50;21.80;;;;;;;15.86;100.00;100244.50;6022743;28;20050;-63
2022/09/08 06:52:14;;;;;;;36.78;21.15;;;;;;;15.90;100.00;100239.56;6022235;28;20037;-63
2022/09/08 06:55:11;;;;;;;37.50;21.77;;;;;;;15.99;100.00;100211.69;6035484;28;20104;-63
2022/09/08 06:58:20;;;;;;;35.55;20.10;;;;;;;16.12;100.00;100195.75;6034695;28;20030;-62
2022/09/08 07:01:19;;;;;;;32.40;19.52;;;;;;;16.17;100.00;100192.50;6046490;28;20029;-63
2022/09/08 07:04:40;;;;;;;33.78;20.45;;;;;;;16.05;100.00;100178.81;6044835;28;20547;-63
2022/09/08 07:07:43;;;;;;;35.42;19.30;;;;;;;16.11;100.00;100166.53;6045086;28;20038;-63
2022/09/08 07:10:45;;;;;;;35.00;20.70;;;;;;;16.06;100.00;100175.13;6042448;28;20548;-63
2022/09/08 07:13:49;;;;;;;38.03;20.83;;;;;;;16.11;100.00;100178.06;6061453;28;20052;-63
2022/09/08 07:16:59;;;;;;;39.22;22.38;;;;;;;16.20;100.00;100189.44;6041152;28;20485;-63
2022/09/08 07:19:54;;;;;;;40.08;22.08;;;;;;;16.25;100.00;100190.47;6061697;28;20434;-63
2022/09/08 07:23:11;;;;;;;38.85;23.60;;;;;;;16.34;100.00;100183.13;6044056;28;20041;-63
2022/09/08 07:26:22;;;;;;;37.70;21.17;;;;;;;16.53;100.00;100183.28;6045543;28;20029;-62
2022/09/08 07:29:29;;;;;;;39.33;19.60;;;;;;;16.51;100.00;100179.97;6042953;28;20045;-63
2022/09/08 07:32:30;;;;;;;36.22;23.15;;;;;;;16.53;100.00;100166.41;6042735;28;20092;-63
2022/09/08 07:35:41;;;;;;;41.85;22.52;;;;;;;16.60;100.00;100172.63;6044856;28;20477;-63
2022/09/08 07:38:42;;;;;;;37.63;21.42;;;;;;;16.63;100.00;100170.34;6037671;28;20045;-63
2022/09/08 07:41:43;;;;;;;34.67;20.80;;;;;;;16.65;100.00;100160.31;6038512;28;20034;-63
2022/09/08 07:44:39;;;;;;;34.55;21.45;;;;;;;16.64;100.00;100160.47;6038728;28;20113;-63
2022/09/08 07:47:40;;;;;;;33.50;21.10;;;;;;;16.65;100.00;100148.75;6038495;28;20113;-62
2022/09/08 07:50:55;;;;;;;35.88;20.80;;;;;;;16.79;100.00;100149.66;6041027;28;20042;-63
2022/09/08 07:53:50;;;;;;;35.00;19.95;;;;;;;16.85;100.00;100173.75;6043691;28;20041;-63
2022/09/08 07:57:09;;;;;;;32.70;20.50;;;;;;;16.79;100.00;100171.06;6044358;28;20038;-63
2022/09/08 08:00:15;;;;;;;31.45;20.63;;;;;;;16.81;100.00;100158.28;6027616;28;20053;-64
2022/09/08 08:03:39;;;;;;;36.22;21.45;;;;;;;16.80;100.00;100162.00;6047820;28;20034;-64
2022/09/08 08:06:50;;;;;;;34.30;21.67;;;;;;;16.84;100.00;100156.06;6063924;28;20030;-63
2022/09/08 08:09:56;;;;;;;33.13;19.85;;;;;;;16.75;100.00;100133.13;6046572;28;20105;-63
2022/09/08 08:13:15;;;;;;;35.40;21.17;;;;;;;16.90;100.00;100141.88;6049771;28;20092;-63
2022/09/08 08:16:15;;;;;;;35.20;20.42;;;;;;;16.93;100.00;100151.34;6052988;28;20049;-63
2022/09/08 08:19:48;;;;;;;31.27;19.65;;;;;;;17.02;100.00;100155.47;6045604;28;20049;-64
2022/09/08 08:23:11;;;;;;;30.92;18.42;;;;;;;17.14;100.00;100159.25;6039013;28;20417;-64
2022/09/08 08:26:30;;;;;;;34.38;19.88;;;;;;;17.20;100.00;100159.25;6028777;28;20441;-63
2022/09/08 08:30:02;;;;;;;31.95;19.50;;;;;;;17.32;100.00;100151.44;6046021;28;20038;-64
2022/09/08 08:33:09;;;;;;;31.85;20.65;;;;;;;17.18;100.00;100155.13;6057942;28;20045;-64
2022/09/08 08:36:15;;;;;;;30.02;18.45;;;;;;;17.28;100.00;100134.94;6049616;28;20442;-64
2022/09/08 08:39:16;;;;;;;;;;;;;;;17.47;100.00;100152.09;6050443;28;20050;-64
2022/09/08 08:42:17;;;;;;;29.33;17.75;;;;;;;17.48;100.00;100153.72;6056399;28;20312;-64
2022/09/08 08:45:22;;;;;;;28.38;17.65;;;;;;;17.51;100.00;100150.66;6048945;28;20041;-64
2022/09/08 08:48:29;;;;;;;32.50;18.83;;;;;;;17.43;100.00;100153.53;6042488;28;20152;-64
2022/09/08 08:51:57;;;;;;;31.92;18.27;;;;;;;17.41;100.00;100163.63;6039785;28;20034;-64
2022/09/08 08:55:17;;;;;;;29.88;17.58;;;;;;;17.42;100.00;100151.06;6062944;28;20080;-64
2022/09/08 08:58:43;;;;;;;34.33;19.98;;;;;;;17.30;100.00;100158.88;6051157;28;20042;-64
2022/09/08 09:02:17;;;;;;;31.75;19.45;;;;;;;17.32;100.00;100167.53;6047326;28;20037;-64
2022/09/08 09:05:12;;;;;;;32.25;18.80;;;;;;;17.33;100.00;100158.47;6039724;28;20076;-64
2022/09/08 09:08:20;;;;;;;30.13;18.93;;;;;;;17.34;100.00;100165.47;6049273;28;20033;-64
2022/09/08 09:11:57;;;;;;;31.15;19.30;;;;;;;17.32;100.00;100167.53;6035377;28;20041;-64
2022/09/08 09:15:37;;;;;;;39.05;20.40;;;;;;;17.39;100.00;100162.19;6039977;28;20478;-65
2022/09/08 09:18:45;;;;;;;37.13;20.63;;;;;;;17.38;100.00;100166.72;6023814;28;20402;-65
2022/09/08 09:21:52;;;;;;;30.20;17.77;;;;;;;17.40;100.00;100158.47;6048129;28;20092;-65
2022/09/08 09:25:14;;;;;;;31.48;17.80;;;;;;;17.46;100.00;100161.16;6038550;28;20120;-65
2022/09/08 09:28:22;;;;;;;29.90;15.80;;;;;;;17.67;100.00;100171.72;6032002;28;20053;-64
2022/09/08 09:31:31;;;;;;;25.75;14.00;;;;;;;17.58;100.00;100172.16;6043619;28;20056;-65
2022/09/08 09:34:57;;;;;;;23.35;11.90;;;;;;;17.60;100.00;100164.72;6042882;28;20048;-64
2022/09/08 09:38:23;;;;;;;22.20;12.13;;;;;;;17.64;100.00;100161.41;6048611;28;20755;-64
2022/09/08 09:41:51;;;;;;;23.48;13.10;;;;;;;17.58;100.00;100167.59;6047811;28;20033;-65
2022/09/08 09:45:05;;;;;;;24.15;11.98;;;;;;;17.61;100.00;100171.75;6034976;28;20097;-63
2022/09/08 09:48:12;;;;;;;20.02;11.48;;;;;;;17.59;100.00;100163.88;6038599;28;20034;-64
2022/09/08 09:51:34;;;;;;;18.23;11.88;;;;;;;17.59;100.00;100179.97;6034559;28;20100;-64
2022/09/08 09:54:53;;;;;;;18.60;11.40;;;;;;;17.78;100.00;100172.97;6041156;28;20818;-65
2022/09/08 09:58:19;;;;;;;17.50;10.38;;;;;;;17.95;100.00;100184.13;6063449;28;20033;-64
2022/09/08 10:01:42;;;;;;;17.98;10.00;;;;;;;18.11;100.00;100178.34;6056665;28;20042;-66
2022/09/08 10:04:43;;;;;;;12.38;8.82;;;;;;;18.16;100.00;100179.38;6034277;28;20057;-65
2022/09/08 10:08:01;;;;;;;13.43;8.70;;;;;;;18.17;100.00;100174.81;6036526;28;20103;-64
2022/09/08 10:11:38;;;;;;;12.20;8.18;;;;;;;18.19;100.00;100167.38;6039161;28;20029;-66
2022/09/08 10:14:59;;;;;;;13.90;8.70;;;;;;;18.04;100.00;100174.84;6005202;28;20038;-65
2022/09/08 10:18:23;;;;;;;14.10;8.98;;;;;;;18.00;100.00;100157.50;6046378;28;20042;-64
2022/09/08 10:21:30;;;;;;;12.13;8.15;;;;;;;18.01;100.00;100167.22;6047108;28;20469;-67
2022/09/08 10:24:47;;;;;;;15.98;8.82;;;;;;;17.97;100.00;100166.78;6046280;28;20124;-67
2022/09/08 10:28:08;;;;;;;13.95;8.48;;;;;;;17.79;100.00;100164.75;6044114;28;20096;-65
2022/09/08 10:31:33;;;;;;;16.60;9.05;;;;;;;17.75;100.00;100165.34;6031513;28;20037;-67
2022/09/08 10:34:47;;;;;;;15.10;8.52;;;;;;;17.72;100.00;100163.91;6057124;28;20034;-64
2022/09/08 10:38:10;;;;;;;15.90;9.23;;;;;;;17.61;100.00;100161.81;6045284;28;20424;-66
2022/09/08 10:41:38;;;;;;;17.90;10.35;;;;;;;17.45;100.00;100139.94;6026459;28;20037;-65
2022/09/08 10:44:46;;;;;;;18.88;11.38;;;;;;;17.43;100.00;100150.84;6045878;28;20048;-66
2022/09/08 10:48:03;;;;;;;19.30;10.20;;;;;;;17.39;100.00;100156.81;6046791;28;20029;-66
2022/09/08 10:51:23;;;;;;;17.35;10.35;;;;;;;17.39;100.00;100165.69;6046465;28;20049;-66
2022/09/08 10:54:35;;;;;;;18.05;10.60;;;;;;;17.30;100.00;100158.88;6040550;28;20107;-66
2022/09/08 10:57:44;;;;;;;15.88;10.70;;;;;;;17.22;100.00;100161.75;6042604;28;20030;-67
2022/09/08 11:00:59;;;;;;;21.25;11.43;;;;;;;17.19;100.00;100156.78;6059983;28;20083;-66
2022/09/08 11:04:08;;;;;;;20.63;10.52;;;;;;;16.95;100.00;100170.72;6043013;28;20389;-66
2022/09/08 11:07:40;;;;;;;21.33;11.80;;;;;;;16.91;100.00;100158.75;6036041;28;20056;-66
2022/09/08 11:11:03;;;;;;;15.75;9.77;;;;;;;16.81;100.00;100161.81;6035315;28;20544;-65
2022/09/08 11:14:22;;;;;;;17.13;10.35;;;;;;;16.88;100.00;100159.97;6046266;28;20025;-65
2022/09/08 11:17:24;;;;;;;14.75;8.88;;;;;;;16.90;100.00;100151.75;6046291;28;20481;-65
2022/09/08 11:20:27;;;;;;;18.13;10.25;;;;;;;16.93;100.00;100146.00;6037953;28;20389;-66
2022/09/08 11:23:59;;;;;;;13.43;7.50;;;;;;;16.68;100.00;100143.00;6040676;28;20041;-65
2022/09/08 11:27:02;;;;;;;10.95;6.85;;;;;;;16.59;100.00;100142.34;6034983;28;20061;-64
2022/09/08 11:30:19;;;;;;;10.73;7.32;;;;;;;16.84;100.00;100147.19;6052068;28;20048;-65
2022/09/08 11:33:51;;;;;;;13.23;7.63;;;;;;;16.76;100.00;100156.22;6041985;28;20045;-65
2022/09/08 11:37:21;;;;;;;12.05;7.45;;;;;;;16.86;100.00;100158.50;6042770;28;20033;-65
2022/09/08 11:40:58;;;;;;;14.98;8.15;;;;;;;16.88;100.00;100153.78;6034081;28;20036;-64
2022/09/08 11:44:12;;;;;;;13.15;7.28;;;;;;;16.94;100.00;100158.34;6045546;28;20089;-65
2022/09/08 11:47:44;;;;;;;12.90;7.90;;;;;;;16.85;100.00;100159.56;6045102;28;20480;-65
2022/09/08 11:51:02;;;;;;;14.13;7.30;;;;;;;16.86;100.00;100155.84;6045352;28;20057;-65
2022/09/08 11:54:09;;;;;;;12.18;7.57;;;;;;;16.80;100.00;100167.34;6056546;28;20041;-66
2022/09/08 11:57:46;;;;;;;12.02;6.32;;;;;;;16.73;100.00;100167.34;6037763;28;20120;-66
2022/09/08 12:00:56;;;;;;;12.45;7.40;;;;;;;16.72;100.00;100170.19;6019613;28;20046;-66
2022/09/08 12:04:32;;;;;;;11.57;6.85;;;;;;;16.61;100.00;100168.91;6040073;28;20132;-66
2022/09/08 12:07:48;;;;;;;12.98;7.55;;;;;;;16.71;100.00;100171.22;6040722;28;20034;-67
2022/09/08 12:11:07;;;;;;;11.40;6.05;;;;;;;16.66;100.00;100167.28;6043575;28;20026;-67
2022/09/08 12:14:05;;;;;;;;;;;;;;;16.56;100.00;100171.34;6049697;28;20058;-65
2022/09/08 12:17:25;;;;;;;10.52;6.22;;;;;;;16.56;100.00;100174.03;6057786;28;19983;-66
2022/09/08 12:20:26;;;;;;;11.27;6.07;;;;;;;16.52;100.00;100173.56;6039406;28;20397;-66
2022/09/08 12:23:35;;;;;;;11.23;5.50;;;;;;;16.61;100.00;100177.78;6056079;28;20096;-65
2022/09/08 12:26:41;;;;;;;10.77;6.30;;;;;;;16.61;100.00;100187.66;6044946;28;20037;-65
2022/09/08 12:30:02;;;;;;;10.10;6.53;;;;;;;16.65;100.00;100187.06;6055268;28;20054;-66
2022/09/08 12:33:34;;;;;;;10.02;5.82;;;;;;;16.69;100.00;100184.00;6036217;28;20052;-66
2022/09/08 12:36:49;;;;;;;;;;;;;;;16.70;100.00;100182.97;6058037;28;20657;-66
2022/09/08 12:40:02;;;;;;;9.43;6.05;;;;;;;16.54;100.00;100174.25;6032543;28;19949;-67
2022/09/08 12:43:18;;;;;;;10.55;6.68;;;;;;;16.59;100.00;100187.84;6040237;28;20091;-66
2022/09/08 12:46:18;;;;;;;10.50;6.95;;;;;;;16.65;100.00;100178.22;6038598;28;20030;-66
2022/09/08 12:49:48;;;;;;;10.98;7.28;;;;;;;16.72;100.00;100184.41;6047802;28;20501;-66
2022/09/08 12:52:53;;;;;;;13.60;6.82;;;;;;;16.76;100.00;100176.81;6054624;28;20104;-66
2022/09/08 12:56:03;;;;;;;9.95;6.22;;;;;;;16.70;100.00;100180.28;6049226;28;20570;-67
2022/09/08 12:59:13;;;;;;;11.80;5.72;;;;;;;16.65;100.00;100183.56;6048429;28;20116;-68
2022/09/08 13:02:28;;;;;;;8.52;5.00;;;;;;;16.61;100.00;100175.09;6033003;28;20033;-69
2022/09/08 13:05:50;;;;;;;8.75;4.47;;;;;;;16.49;100.00;100159.75;6037790;28;20354;-66
2022/09/08 13:08:46;;;;;;;7.70;4.20;;;;;;;16.66;100.00;100171.81;6042284;28;20104;-67
2022/09/08 13:12:07;;;;;;;6.35;4.43;;;;;;;16.66;100.00;100175.31;6034886;28;20042;-67
2022/09/08 13:15:18;;;;;;;7.68;5.15;;;;;;;16.58;100.00;100156.75;6042843;28;20099;-66
2022/09/08 13:18:25;;;;;;;8.55;5.07;;;;;;;16.83;100.00;100173.13;6033171;28;20412;-66
2022/09/08 13:21:53;;;;;;;8.93;5.28;;;;;;;16.87;100.00;100181.59;6047643;28;20133;-66
2022/09/08 13:25:19;;;;;;;9.82;5.35;;;;;;;16.85;100.00;100179.13;6062890;28;20511;-66
2022/09/08 13:28:29;;;;;;;7.95;5.15;;;;;;;17.06;100.00;100173.66;6032389;28;20044;-66
2022/09/08 13:31:35;;;;;;;7.97;4.65;;;;;;;17.05;100.00;100160.44;6061702;28;20041;-66
2022/09/08 13:34:42;;;;;;;7.55;4.70;;;;;;;17.06;100.00;100175.50;6045485;28;20044;-66
2022/09/08 13:37:59;;;;;;;8.10;4.70;;;;;;;17.01;100.00;100175.28;6047926;28;20137;-66
2022/09/08 13:41:15;;;;;;;6.70;3.95;;;;;;;17.02;100.00;100176.91;6047396;28;20135;-66
2022/09/08 13:44:27;;;;;;;7.63;4.07;;;;;;;17.03;100.00;100154.47;6047744;28;20041;-66
2022/09/08 13:47:42;;;;;;;5.57;3.97;;;;;;;16.94;100.00;100167.22;6046495;28;20037;-66
2022/09/08 13:50:52;;;;;;;5.32;3.13;;;;;;;16.66;100.00;100175.31;6045231;28;20029;-66
2022/09/08 13:54:29;;;;;;;6.63;3.85;;;;;;;16.76;100.00;100171.47;6063420;28;20748;-65
2022/09/08 13:57:34;;;;;;;4.57;2.78;;;;;;;16.51;100.00;100179.97;6047435;28;20745;-67
2022/09/08 14:00:29;;;;;;;4.20;2.60;;;;;;;16.38;100.00;100168.34;6040125;28;20038;-67
2022/09/08 14:03:28;;;;;;;4.40;2.00;;;;;;;16.31;100.00;100192.38;6036994;28;20493;-67
2022/09/08 14:06:29;;;;;;;3.83;2.25;;;;;;;16.23;100.00;100203.22;6042346;28;20281;-67
2022/09/08 14:09:28;;;;;;;4.30;2.15;;;;;;;16.08;100.00;100178.44;6030680;28;20030;-67